sensor_id;sensor_type;location;lat;lon;timestamp;pressure;altitude;pressure_sealevel;temperature;humidity
54038;BME280;39954;48.844;9.726;2023-01-16T00:00:27;94950.84;;;0.09;100.00
54038;BME280;39954;48.844;9.726;2023-01-16T00:01:30;94959.47;;;0.07;100.00
54038;BME280;39954;48.844;9.726;2023-01-16T00:02:35;94957.50;;;0.13;100.00
54038;BME280;39954;48.844;9.726;2023-01-16T00:03:37;94947.38;;;0.12;100.00
54038;BME280;39954;48.844;9.726;2023-01-16T00:04:42;94935.34;;;0.14;100.00
54038;BME280;39954;48.844;9.726;2023-01-16T00:05:44;94938.59;;;0.19;100.00
54038;BME280;39954;48.844;9.726;2023-01-16T00:06:49;94942.75;;;0.21;100.00
54038;BME280;39954;48.844;9.726;2023-01-16T00:07:51;94937.72;;;0.20;100.00
54038;BME280;39954;48.844;9.726;2023-01-16T00:08:59;94946.31;;;0.17;100.00
54038;BME280;39954;48.844;9.726;2023-01-16T00:10:01;94938.66;;;0.17;100.00
54038;BME280;39954;48.844;9.726;2023-01-16T00:11:06;94939.13;;;0.29;100.00
54038;BME280;39954;48.844;9.726;2023-01-16T00:12:08;94938.28;;;0.28;100.00
54038;BME280;39954;48.844;9.726;2023-01-16T00:13:13;94932.44;;;0.25;100.00
54038;BME280;39954;48.844;9.726;2023-01-16T00:14:15;94930.78;;;0.24;100.00
54038;BME280;39954;48.844;9.726;2023-01-16T00:15:20;94938.38;;;0.25;100.00
54038;BME280;39954;48.844;9.726;2023-01-16T00:16:22;94936.78;;;0.22;100.00
54038;BME280;39954;48.844;9.726;2023-01-16T00:17:27;94935.88;;;0.24;100.00
54038;BME280;39954;48.844;9.726;2023-01-16T00:18:29;94937.53;;;0.25;100.00
54038;BME280;39954;48.844;9.726;2023-01-16T00:19:34;94929.97;;;0.21;100.00
54038;BME280;39954;48.844;9.726;2023-01-16T00:20:36;94930.88;;;0.20;100.00
54038;BME280;39954;48.844;9.726;2023-01-16T00:21:41;94929.41;;;0.13;100.00
54038;BME280;39954;48.844;9.726;2023-01-16T00:22:43;94931.28;;;0.08;100.00
54038;BME280;39954;48.844;9.726;2023-01-16T00:23:48;94926.50;;;-0.01;100.00
54038;BME280;39954;48.844;9.726;2023-01-16T00:24:53;94926.72;;;-0.07;100.00
54038;BME280;39954;48.844;9.726;2023-01-16T00:25:58;94931.94;;;-0.10;100.00
54038;BME280;39954;48.844;9.726;2023-01-16T00:27:00;94917.56;;;-0.14;100.00
54038;BME280;39954;48.844;9.726;2023-01-16T00:28:08;94919.38;;;-0.16;100.00
54038;BME280;39954;48.844;9.726;2023-01-16T00:29:10;94925.44;;;-0.20;100.00
54038;BME280;39954;48.844;9.726;2023-01-16T00:30:15;94916.91;;;-0.19;100.00
54038;BME280;39954;48.844;9.726;2023-01-16T00:31:17;94910.72;;;-0.12;100.00
54038;BME280;39954;48.844;9.726;2023-01-16T00:32:27;94913.94;;;-0.07;100.00
54038;BME280;39954;48.844;9.726;2023-01-16T00:33:30;94912.09;;;-0.04;100.00
54038;BME280;39954;48.844;9.726;2023-01-16T00:34:35;94897.34;;;0.05;100.00
54038;BME280;39954;48.844;9.726;2023-01-16T00:35:37;94899.41;;;0.20;100.00
54038;BME280;39954;48.844;9.726;2023-01-16T00:36:42;94903.44;;;0.26;100.00
54038;BME280;39954;48.844;9.726;2023-01-16T00:37:44;94906.03;;;0.24;100.00
54038;BME280;39954;48.844;9.726;2023-01-16T00:38:49;94907.69;;;0.25;100.00
54038;BME280;39954;48.844;9.726;2023-01-16T00:39:54;94896.53;;;0.28;100.00
54038;BME280;39954;48.844;9.726;2023-01-16T00:40:59;94899.88;;;0.30;100.00
54038;BME280;39954;48.844;9.726;2023-01-16T00:42:02;94894.66;;;0.33;100.00
54038;BME280;39954;48.844;9.726;2023-01-16T00:43:07;94894.53;;;0.36;100.00
54038;BME280;39954;48.844;9.726;2023-01-16T00:44:09;94894.53;;;0.36;100.00
54038;BME280;39954;48.844;9.726;2023-01-16T00:45:13;94882.59;;;0.36;100.00
54038;BME280;39954;48.844;9.726;2023-01-16T00:46:16;94892.00;;;0.36;100.00
54038;BME280;39954;48.844;9.726;2023-01-16T00:47:20;94887.66;;;0.38;100.00
54038;BME280;39954;48.844;9.726;2023-01-16T00:48:23;94879.97;;;0.39;100.00
54038;BME280;39954;48.844;9.726;2023-01-16T00:49:28;94888.22;;;0.46;100.00
54038;BME280;39954;48.844;9.726;2023-01-16T00:50:30;94883.91;;;0.48;100.00
54038;BME280;39954;48.844;9.726;2023-01-16T00:51:35;94878.03;;;0.44;100.00
54038;BME280;39954;48.844;9.726;2023-01-16T00:52:37;94881.47;;;0.45;100.00
54038;BME280;39954;48.844;9.726;2023-01-16T00:53:42;94880.56;;;0.46;100.00
54038;BME280;39954;48.844;9.726;2023-01-16T00:54:44;94874.78;;;0.41;100.00
54038;BME280;39954;48.844;9.726;2023-01-16T00:55:53;94884.22;;;0.39;100.00
54038;BME280;39954;48.844;9.726;2023-01-16T00:56:55;94876.63;;;0.37;100.00
54038;BME280;39954;48.844;9.726;2023-01-16T00:57:59;94870.69;;;0.37;100.00
54038;BME280;39954;48.844;9.726;2023-01-16T00:59:02;94872.44;;;0.35;100.00
54038;BME280;39954;48.844;9.726;2023-01-16T01:00:08;94873.22;;;0.37;100.00
54038;BME280;39954;48.844;9.726;2023-01-16T01:01:10;94868.16;;;0.35;100.00
54038;BME280;39954;48.844;9.726;2023-01-16T01:02:15;94866.53;;;0.33;100.00
54038;BME280;39954;48.844;9.726;2023-01-16T01:03:18;94865.75;;;0.31;100.00
54038;BME280;39954;48.844;9.726;2023-01-16T01:04:23;94859.81;;;0.30;100.00
54038;BME280;39954;48.844;9.726;2023-01-16T01:05:25;94856.44;;;0.30;100.00
54038;BME280;39954;48.844;9.726;2023-01-16T01:06:29;94854.81;;;0.27;100.00
54038;BME280;39954;48.844;9.726;2023-01-16T01:07:32;94854.13;;;0.24;100.00
54038;BME280;39954;48.844;9.726;2023-01-16T01:08:37;94850.66;;;0.25;100.00
54038;BME280;39954;48.844;9.726;2023-01-16T01:09:39;94848.88;;;0.27;100.00
54038;BME280;39954;48.844;9.726;2023-01-16T01:10:43;94843.00;;;0.25;100.00
54038;BME280;39954;48.844;9.726;2023-01-16T01:11:48;94843.66;;;0.30;100.00
54038;BME280;39954;48.844;9.726;2023-01-16T01:12:54;94836.78;;;0.32;100.00
54038;BME280;39954;48.844;9.726;2023-01-16T01:13:56;94842.72;;;0.32;100.00
54038;BME280;39954;48.844;9.726;2023-01-16T01:15:02;94845.31;;;0.31;100.00
54038;BME280;39954;48.844;9.726;2023-01-16T01:16:05;94840.28;;;0.29;100.00
54038;BME280;39954;48.844;9.726;2023-01-16T01:17:10;94841.94;;;0.30;100.00
54038;BME280;39954;48.844;9.726;2023-01-16T01:18:13;94836.59;;;0.36;100.00
54038;BME280;39954;48.844;9.726;2023-01-16T01:19:17;94836.66;;;0.35;100.00
54038;BME280;39954;48.844;9.726;2023-01-16T01:20:19;94832.34;;;0.37;100.00
54038;BME280;39954;48.844;9.726;2023-01-16T01:21:25;94829.66;;;0.40;100.00
54038;BME280;39954;48.844;9.726;2023-01-16T01:22:27;94823.78;;;0.38;100.00
54038;BME280;39954;48.844;9.726;2023-01-16T01:23:32;94822.88;;;0.39;100.00
54038;BME280;39954;48.844;9.726;2023-01-16T01:24:34;94822.03;;;0.38;100.00
54038;BME280;39954;48.844;9.726;2023-01-16T01:25:39;94831.56;;;0.35;100.00
54038;BME280;39954;48.844;9.726;2023-01-16T01:26:41;94823.88;;;0.35;100.00
54038;BME280;39954;48.844;9.726;2023-01-16T01:27:49;94821.44;;;0.32;100.00
54038;BME280;39954;48.844;9.726;2023-01-16T01:28:51;94824.88;;;0.31;100.00
54038;BME280;39954;48.844;9.726;2023-01-16T01:29:56;94832.66;;;0.28;100.00
54038;BME280;39954;48.844;9.726;2023-01-16T01:31:01;94816.63;;;0.24;100.00
54038;BME280;39954;48.844;9.726;2023-01-16T01:32:06;94825.09;;;0.25;100.00
54038;BME280;39954;48.844;9.726;2023-01-16T01:33:08;94821.78;;;0.22;100.00
54038;BME280;39954;48.844;9.726;2023-01-16T01:34:13;94821.06;;;0.19;100.00
54038;BME280;39954;48.844;9.726;2023-01-16T01:35:15;94811.84;;;0.15;100.00
54038;BME280;39954;48.844;9.726;2023-01-16T01:36:21;94816.16;;;0.13;100.00
54038;BME280;39954;48.844;9.726;2023-01-16T01:37:23;94816.88;;;0.16;100.00
54038;BME280;39954;48.844;9.726;2023-01-16T01:38:28;94806.66;;;0.16;100.00
54038;BME280;39954;48.844;9.726;2023-01-16T01:39:31;94810.13;;;0.15;100.00
54038;BME280;39954;48.844;9.726;2023-01-16T01:40:36;94811.13;;;0.11;100.00
54038;BME280;39954;48.844;9.726;2023-01-16T01:41:38;94804.34;;;0.10;100.00
54038;BME280;39954;48.844;9.726;2023-01-16T01:42:42;94806.19;;;0.07;100.00
54038;BME280;39954;48.844;9.726;2023-01-16T01:43:49;94797.03;;;0.01;100.00
54038;BME280;39954;48.844;9.726;2023-01-16T01:44:56;94802.25;;;-0.02;100.00
54038;BME280;39954;48.844;9.726;2023-01-16T01:45:58;94797.13;;;-0.02;100.00
54038;BME280;39954;48.844;9.726;2023-01-16T01:47:03;94792.25;;;-0.08;100.00
54038;BME280;39954;48.844;9.726;2023-01-16T01:48:18;94787.22;;;-0.11;100.00
54038;BME280;39954;48.844;9.726;2023-01-16T01:49:27;94791.69;;;-0.16;100.00
54038;BME280;39954;48.844;9.726;2023-01-16T01:50:37;94781.63;;;-0.21;100.00
54038;BME280;39954;48.844;9.726;2023-01-16T01:51:45;94780.91;;;-0.25;100.00
54038;BME280;39954;48.844;9.726;2023-01-16T01:52:47;94777.69;;;-0.30;100.00
54038;BME280;39954;48.844;9.726;2023-01-16T01:53:55;94773.47;;;-0.31;100.00
54038;BME280;39954;48.844;9.726;2023-01-16T01:55:04;94773.50;;;-0.32;100.00
54038;BME280;39954;48.844;9.726;2023-01-16T01:56:12;94772.72;;;-0.34;100.00
54038;BME280;39954;48.844;9.726;2023-01-16T01:57:21;94769.47;;;-0.38;100.00
54038;BME280;39954;48.844;9.726;2023-01-16T01:58:26;94777.06;;;-0.36;100.00
54038;BME280;39954;48.844;9.726;2023-01-16T01:59:55;94774.69;;;-0.41;100.00
54038;BME280;39954;48.844;9.726;2023-01-16T02:01:04;94769.56;;;-0.41;100.00
54038;BME280;39954;48.844;9.726;2023-01-16T02:02:13;94771.22;;;-0.40;100.00
54038;BME280;39954;48.844;9.726;2023-01-16T02:03:21;94764.47;;;-0.41;100.00
54038;BME280;39954;48.844;9.726;2023-01-16T02:04:31;94761.94;;;-0.42;100.00
54038;BME280;39954;48.844;9.726;2023-01-16T02:05:36;94760.34;;;-0.45;100.00
54038;BME280;39954;48.844;9.726;2023-01-16T02:06:49;94761.34;;;-0.49;100.00
54038;BME280;39954;48.844;9.726;2023-01-16T02:07:55;94758.06;;;-0.53;100.00
54038;BME280;39954;48.844;9.726;2023-01-16T02:09:01;94748.03;;;-0.57;100.00
54038;BME280;39954;48.844;9.726;2023-01-16T02:10:10;94742.81;;;-0.54;100.00
54038;BME280;39954;48.844;9.726;2023-01-16T02:11:20;94741.94;;;-0.53;100.00
54038;BME280;39954;48.844;9.726;2023-01-16T02:12:27;94732.34;;;-0.47;100.00
54038;BME280;39954;48.844;9.726;2023-01-16T02:13:33;94735.59;;;-0.43;100.00
54038;BME280;39954;48.844;9.726;2023-01-16T02:14:40;94726.84;;;-0.36;100.00
54038;BME280;39954;48.844;9.726;2023-01-16T02:15:46;94728.63;;;-0.38;100.00
54038;BME280;39954;48.844;9.726;2023-01-16T02:17:05;94730.38;;;-0.40;100.00
54038;BME280;39954;48.844;9.726;2023-01-16T02:18:22;94721.22;;;-0.46;100.00
54038;BME280;39954;48.844;9.726;2023-01-16T02:19:46;94713.53;;;-0.44;100.00
54038;BME280;39954;48.844;9.726;2023-01-16T02:21:02;94710.91;;;-0.42;100.00
54038;BME280;39954;48.844;9.726;2023-01-16T02:22:33;94702.50;;;-0.44;100.00
54038;BME280;39954;48.844;9.726;2023-01-16T02:24:10;94699.38;;;-0.53;100.00
54038;BME280;39954;48.844;9.726;2023-01-16T02:25:48;94698.56;;;-0.53;100.00
54038;BME280;39954;48.844;9.726;2023-01-16T02:27:20;94693.09;;;-0.44;100.00
54038;BME280;39954;48.844;9.726;2023-01-16T02:30:31;94685.59;;;-0.49;100.00
54038;BME280;39954;48.844;9.726;2023-01-16T02:31:48;94682.28;;;-0.51;100.00
54038;BME280;39954;48.844;9.726;2023-01-16T02:33:10;94676.22;;;-0.48;100.00
54038;BME280;39954;48.844;9.726;2023-01-16T02:34:31;94669.25;;;-0.43;100.00
54038;BME280;39954;48.844;9.726;2023-01-16T02:36:00;94659.38;;;-0.52;100.00
54038;BME280;39954;48.844;9.726;2023-01-16T02:37:14;94662.09;;;-0.57;100.00
54038;BME280;39954;48.844;9.726;2023-01-16T02:38:29;94653.72;;;-0.60;100.00
54038;BME280;39954;48.844;9.726;2023-01-16T02:39:44;94644.19;;;-0.55;100.00
54038;BME280;39954;48.844;9.726;2023-01-16T02:40:55;94637.13;;;-0.49;100.00
54038;BME280;39954;48.844;9.726;2023-01-16T02:42:10;94637.06;;;-0.47;100.00
54038;BME280;39954;48.844;9.726;2023-01-16T02:43:23;94638.84;;;-0.49;100.00
54038;BME280;39954;48.844;9.726;2023-01-16T02:44:36;94632.69;;;-0.43;100.00
54038;BME280;39954;48.844;9.726;2023-01-16T02:45:45;94629.97;;;-0.39;100.00
54038;BME280;39954;48.844;9.726;2023-01-16T02:47:07;94629.72;;;-0.33;100.00
54038;BME280;39954;48.844;9.726;2023-01-16T02:48:24;94611.75;;;-0.30;100.00
54038;BME280;39954;48.844;9.726;2023-01-16T02:49:30;94617.91;;;-0.35;100.00
54038;BME280;39954;48.844;9.726;2023-01-16T02:50:42;94616.31;;;-0.38;100.00
54038;BME280;39954;48.844;9.726;2023-01-16T02:51:52;94609.75;;;-0.45;100.00
54038;BME280;39954;48.844;9.726;2023-01-16T02:53:07;94605.53;;;-0.46;100.00
54038;BME280;39954;48.844;9.726;2023-01-16T02:54:16;94604.88;;;-0.51;100.00
54038;BME280;39954;48.844;9.726;2023-01-16T02:55:29;94611.03;;;-0.57;100.00
54038;BME280;39954;48.844;9.726;2023-01-16T02:56:39;94609.66;;;-0.65;100.00
54038;BME280;39954;48.844;9.726;2023-01-16T02:57:51;94602.13;;;-0.69;100.00
54038;BME280;39954;48.844;9.726;2023-01-16T02:58:56;94597.19;;;-0.73;100.00
54038;BME280;39954;48.844;9.726;2023-01-16T03:00:06;94595.69;;;-0.79;100.00
54038;BME280;39954;48.844;9.726;2023-01-16T03:01:09;94603.78;;;-0.68;100.00
54038;BME280;39954;48.844;9.726;2023-01-16T03:02:18;94598.28;;;-0.57;100.00
54038;BME280;39954;48.844;9.726;2023-01-16T03:03:35;94589.81;;;-0.57;100.00
54038;BME280;39954;48.844;9.726;2023-01-16T03:04:46;94590.81;;;-0.61;100.00
54038;BME280;39954;48.844;9.726;2023-01-16T03:06:03;94588.47;;;-0.68;100.00
54038;BME280;39954;48.844;9.726;2023-01-16T03:07:36;94583.25;;;-0.64;100.00
54038;BME280;39954;48.844;9.726;2023-01-16T03:08:53;94583.38;;;-0.68;100.00
54038;BME280;39954;48.844;9.726;2023-01-16T03:11:36;94578.50;;;-0.74;100.00
54038;BME280;39954;48.844;9.726;2023-01-16T03:12:54;94568.13;;;-0.69;100.00
54038;BME280;39954;48.844;9.726;2023-01-16T03:14:27;94566.13;;;-0.61;100.00
54038;BME280;39954;48.844;9.726;2023-01-16T03:15:43;94563.50;;;-0.59;100.00
54038;BME280;39954;48.844;9.726;2023-01-16T03:17:08;94557.53;;;-0.58;100.00
54038;BME280;39954;48.844;9.726;2023-01-16T03:18:26;94559.88;;;-0.54;100.00
54038;BME280;39954;48.844;9.726;2023-01-16T03:19:43;94554.97;;;-0.58;100.00
54038;BME280;39954;48.844;9.726;2023-01-16T03:20:58;94549.34;;;-0.66;100.00
54038;BME280;39954;48.844;9.726;2023-01-16T03:22:09;94549.56;;;-0.73;100.00
54038;BME280;39954;48.844;9.726;2023-01-16T03:23:22;94546.47;;;-0.81;100.00
54038;BME280;39954;48.844;9.726;2023-01-16T03:24:36;94539.88;;;-0.64;100.00
54038;BME280;39954;48.844;9.726;2023-01-16T03:25:53;94534.72;;;-0.63;100.00
54038;BME280;39954;48.844;9.726;2023-01-16T03:27:00;94535.09;;;-0.50;100.00
54038;BME280;39954;48.844;9.726;2023-01-16T03:28:14;94526.78;;;-0.55;100.00
54038;BME280;39954;48.844;9.726;2023-01-16T03:29:26;94522.47;;;-0.53;100.00
54038;BME280;39954;48.844;9.726;2023-01-16T03:30:55;94511.72;;;-0.61;100.00
54038;BME280;39954;48.844;9.726;2023-01-16T03:32:09;94508.50;;;-0.66;100.00
54038;BME280;39954;48.844;9.726;2023-01-16T03:33:26;94512.72;;;-0.65;100.00
54038;BME280;39954;48.844;9.726;2023-01-16T03:34:39;94505.75;;;-0.62;100.00
54038;BME280;39954;48.844;9.726;2023-01-16T03:35:47;94507.44;;;-0.61;100.00
54038;BME280;39954;48.844;9.726;2023-01-16T03:36:58;94500.75;;;-0.63;100.00
54038;BME280;39954;48.844;9.726;2023-01-16T03:38:04;94502.69;;;-0.48;100.00
54038;BME280;39954;48.844;9.726;2023-01-16T03:39:12;94496.69;;;-0.47;100.00
54038;BME280;39954;48.844;9.726;2023-01-16T03:40:20;94496.75;;;-0.49;100.00
54038;BME280;39954;48.844;9.726;2023-01-16T03:41:27;94490.53;;;-0.41;100.00
54038;BME280;39954;48.844;9.726;2023-01-16T03:42:36;94491.41;;;-0.42;100.00
54038;BME280;39954;48.844;9.726;2023-01-16T03:43:45;94487.84;;;-0.38;100.00
54038;BME280;39954;48.844;9.726;2023-01-16T03:44:54;94488.44;;;-0.32;100.00
54038;BME280;39954;48.844;9.726;2023-01-16T03:46:04;94477.97;;;-0.26;100.00
54038;BME280;39954;48.844;9.726;2023-01-16T03:47:10;94475.41;;;-0.26;100.00
54038;BME280;39954;48.844;9.726;2023-01-16T03:48:27;94474.31;;;-0.20;100.00
54038;BME280;39954;48.844;9.726;2023-01-16T03:49:34;94471.16;;;-0.25;100.00
54038;BME280;39954;48.844;9.726;2023-01-16T03:50:42;94469.56;;;-0.28;100.00
54038;BME280;39954;48.844;9.726;2023-01-16T03:51:51;94469.47;;;-0.26;100.00
54038;BME280;39954;48.844;9.726;2023-01-16T03:53:04;94466.09;;;-0.27;100.00
54038;BME280;39954;48.844;9.726;2023-01-16T03:54:13;94464.91;;;-0.18;100.00
54038;BME280;39954;48.844;9.726;2023-01-16T03:55:27;94460.81;;;-0.22;100.00
54038;BME280;39954;48.844;9.726;2023-01-16T03:56:36;94455.06;;;-0.27;100.00
54038;BME280;39954;48.844;9.726;2023-01-16T03:57:46;94451.69;;;-0.28;100.00
54038;BME280;39954;48.844;9.726;2023-01-16T03:58:53;94446.44;;;-0.25;100.00
54038;BME280;39954;48.844;9.726;2023-01-16T03:59:59;94444.97;;;-0.30;100.00
54038;BME280;39954;48.844;9.726;2023-01-16T04:01:09;94432.47;;;-0.36;100.00
54038;BME280;39954;48.844;9.726;2023-01-16T04:02:18;94439.66;;;-0.46;100.00
54038;BME280;39954;48.844;9.726;2023-01-16T04:03:34;94437.81;;;-0.42;100.00
54038;BME280;39954;48.844;9.726;2023-01-16T04:04:46;94434.13;;;-0.35;100.00
54038;BME280;39954;48.844;9.726;2023-01-16T04:05:54;94432.66;;;-0.41;100.00
54038;BME280;39954;48.844;9.726;2023-01-16T04:07:03;94437.06;;;-0.44;100.00
54038;BME280;39954;48.844;9.726;2023-01-16T04:08:10;94432.94;;;-0.49;100.00
54038;BME280;39954;48.844;9.726;2023-01-16T04:09:21;94425.59;;;-0.56;100.00
54038;BME280;39954;48.844;9.726;2023-01-16T04:10:30;94426.38;;;-0.54;100.00
54038;BME280;39954;48.844;9.726;2023-01-16T04:11:36;94416.53;;;-0.63;100.00
54038;BME280;39954;48.844;9.726;2023-01-16T04:12:43;94406.59;;;-0.70;100.00
54038;BME280;39954;48.844;9.726;2023-01-16T04:13:54;94414.44;;;-0.76;100.00
54038;BME280;39954;48.844;9.726;2023-01-16T04:15:00;94407.56;;;-0.74;100.00
54038;BME280;39954;48.844;9.726;2023-01-16T04:16:10;94402.59;;;-0.77;100.00
54038;BME280;39954;48.844;9.726;2023-01-16T04:17:17;94403.94;;;-0.68;100.00
54038;BME280;39954;48.844;9.726;2023-01-16T04:18:26;94404.78;;;-0.68;100.00
54038;BME280;39954;48.844;9.726;2023-01-16T04:19:35;94395.69;;;-0.53;100.00
54038;BME280;39954;48.844;9.726;2023-01-16T04:20:43;94398.28;;;-0.54;100.00
54038;BME280;39954;48.844;9.726;2023-01-16T04:22:08;94389.25;;;-0.61;100.00
54038;BME280;39954;48.844;9.726;2023-01-16T04:23:22;94385.91;;;-0.63;100.00
54038;BME280;39954;48.844;9.726;2023-01-16T04:24:29;94385.09;;;-0.64;100.00
54038;BME280;39954;48.844;9.726;2023-01-16T04:25:33;94384.25;;;-0.64;100.00
54038;BME280;39954;48.844;9.726;2023-01-16T04:26:39;94382.97;;;-0.75;100.00
54038;BME280;39954;48.844;9.726;2023-01-16T04:27:42;94381.28;;;-0.76;100.00
54038;BME280;39954;48.844;9.726;2023-01-16T04:28:49;94375.75;;;-0.85;100.00
54038;BME280;39954;48.844;9.726;2023-01-16T04:29:54;94373.59;;;-0.96;100.00
54038;BME280;39954;48.844;9.726;2023-01-16T04:31:00;94371.88;;;-0.96;100.00
54038;BME280;39954;48.844;9.726;2023-01-16T04:32:03;94369.28;;;-0.94;100.00
54038;BME280;39954;48.844;9.726;2023-01-16T04:33:08;94367.84;;;-1.01;100.00
54038;BME280;39954;48.844;9.726;2023-01-16T04:34:11;94363.94;;;-1.10;100.00
54038;BME280;39954;48.844;9.726;2023-01-16T04:35:20;94354.66;;;-1.11;100.00
54038;BME280;39954;48.844;9.726;2023-01-16T04:36:23;94358.50;;;-1.23;100.00
54038;BME280;39954;48.844;9.726;2023-01-16T04:37:31;94355.88;;;-1.21;100.00
54038;BME280;39954;48.844;9.726;2023-01-16T04:38:35;94348.13;;;-1.18;100.00
54038;BME280;39954;48.844;9.726;2023-01-16T04:39:41;94343.22;;;-1.01;100.00
54038;BME280;39954;48.844;9.726;2023-01-16T04:40:44;94344.88;;;-0.79;100.00
54038;BME280;39954;48.844;9.726;2023-01-16T04:41:49;94336.84;;;-0.91;100.00
54038;BME280;39954;48.844;9.726;2023-01-16T04:42:52;94344.69;;;-0.95;100.00
54038;BME280;39954;48.844;9.726;2023-01-16T04:43:58;94338.13;;;-1.01;100.00
54038;BME280;39954;48.844;9.726;2023-01-16T04:45:01;94335.56;;;-1.01;100.00
54038;BME280;39954;48.844;9.726;2023-01-16T04:46:06;94334.97;;;-0.87;100.00
54038;BME280;39954;48.844;9.726;2023-01-16T04:47:10;94327.59;;;-0.93;100.00
54038;BME280;39954;48.844;9.726;2023-01-16T04:48:16;94324.59;;;-0.82;100.00
54038;BME280;39954;48.844;9.726;2023-01-16T04:49:19;94327.34;;;-0.87;100.00
54038;BME280;39954;48.844;9.726;2023-01-16T04:50:26;94325.44;;;-0.82;100.00
54038;BME280;39954;48.844;9.726;2023-01-16T04:51:31;94318.94;;;-0.89;100.00
54038;BME280;39954;48.844;9.726;2023-01-16T04:52:36;94320.84;;;-0.94;100.00
54038;BME280;39954;48.844;9.726;2023-01-16T04:53:38;94318.72;;;-1.05;100.00
54038;BME280;39954;48.844;9.726;2023-01-16T04:54:43;94318.53;;;-1.00;100.00
54038;BME280;39954;48.844;9.726;2023-01-16T04:55:46;94311.63;;;-0.98;100.00
54038;BME280;39954;48.844;9.726;2023-01-16T04:56:52;94309.81;;;-0.95;100.00
54038;BME280;39954;48.844;9.726;2023-01-16T04:57:56;94308.34;;;-1.00;100.00
54038;BME280;39954;48.844;9.726;2023-01-16T04:59:02;94308.47;;;-1.03;100.00
54038;BME280;39954;48.844;9.726;2023-01-16T05:00:06;94303.38;;;-1.03;100.00
54038;BME280;39954;48.844;9.726;2023-01-16T05:01:27;94297.41;;;-1.04;100.00
54038;BME280;39954;48.844;9.726;2023-01-16T05:02:36;94295.06;;;-1.08;100.00
54038;BME280;39954;48.844;9.726;2023-01-16T05:03:41;94300.59;;;-1.19;100.00
54038;BME280;39954;48.844;9.726;2023-01-16T05:04:43;94298.22;;;-1.24;100.00
54038;BME280;39954;48.844;9.726;2023-01-16T05:05:51;94294.25;;;-1.31;100.00
54038;BME280;39954;48.844;9.726;2023-01-16T05:06:53;94294.44;;;-1.36;100.00
54038;BME280;39954;48.844;9.726;2023-01-16T05:08:02;94289.69;;;-1.45;100.00
54038;BME280;39954;48.844;9.726;2023-01-16T05:09:19;94287.06;;;-1.43;100.00
54038;BME280;39954;48.844;9.726;2023-01-16T05:10:24;94275.22;;;-1.44;100.00
54038;BME280;39954;48.844;9.726;2023-01-16T05:11:29;94281.28;;;-1.47;100.00
54038;BME280;39954;48.844;9.726;2023-01-16T05:12:34;94278.81;;;-1.48;100.00
54038;BME280;39954;48.844;9.726;2023-01-16T05:13:41;94271.09;;;-1.47;100.00
54038;BME280;39954;48.844;9.726;2023-01-16T05:14:46;94263.28;;;-1.42;100.00
54038;BME280;39954;48.844;9.726;2023-01-16T05:15:48;94275.09;;;-1.41;100.00
54038;BME280;39954;48.844;9.726;2023-01-16T05:16:53;94263.03;;;-1.36;100.00
54038;BME280;39954;48.844;9.726;2023-01-16T05:17:55;94260.59;;;-1.39;100.00
54038;BME280;39954;48.844;9.726;2023-01-16T05:19:02;94261.41;;;-1.39;100.00
54038;BME280;39954;48.844;9.726;2023-01-16T05:20:21;94247.84;;;-1.39;100.00
54038;BME280;39954;48.844;9.726;2023-01-16T05:21:29;94248.69;;;-1.39;100.00
54038;BME280;39954;48.844;9.726;2023-01-16T05:22:33;94252.00;;;-1.37;100.00
54038;BME280;39954;48.844;9.726;2023-01-16T05:23:40;94247.84;;;-1.39;100.00
54038;BME280;39954;48.844;9.726;2023-01-16T05:24:42;94247.84;;;-1.39;100.00
54038;BME280;39954;48.844;9.726;2023-01-16T05:25:47;94247.31;;;-1.47;100.00
54038;BME280;39954;48.844;9.726;2023-01-16T05:26:50;94241.16;;;-1.42;100.00
54038;BME280;39954;48.844;9.726;2023-01-16T05:27:55;94237.66;;;-1.39;100.00
54038;BME280;39954;48.844;9.726;2023-01-16T05:28:59;94234.28;;;-1.40;100.00
54038;BME280;39954;48.844;9.726;2023-01-16T05:30:06;94237.66;;;-1.39;100.00
54038;BME280;39954;48.844;9.726;2023-01-16T05:31:12;94235.88;;;-1.37;100.00
54038;BME280;39954;48.844;9.726;2023-01-16T05:32:17;94236.59;;;-1.33;100.00
54038;BME280;39954;48.844;9.726;2023-01-16T05:33:19;94232.56;;;-1.39;100.00
54038;BME280;39954;48.844;9.726;2023-01-16T05:34:24;94222.38;;;-1.39;100.00
54038;BME280;39954;48.844;9.726;2023-01-16T05:35:26;94226.81;;;-1.44;100.00
54038;BME280;39954;48.844;9.726;2023-01-16T05:36:34;94217.88;;;-1.54;100.00
54038;BME280;39954;48.844;9.726;2023-01-16T05:37:39;94223.88;;;-1.55;100.00
54038;BME280;39954;48.844;9.726;2023-01-16T05:38:41;94222.34;;;-1.60;100.00
54038;BME280;39954;48.844;9.726;2023-01-16T05:39:48;94218.00;;;-1.58;100.00
54038;BME280;39954;48.844;9.726;2023-01-16T05:40:50;94211.38;;;-1.62;100.00
54038;BME280;39954;48.844;9.726;2023-01-16T05:41:55;94224.13;;;-1.62;100.00
54038;BME280;39954;48.844;9.726;2023-01-16T05:42:57;94212.91;;;-1.58;100.00
54038;BME280;39954;48.844;9.726;2023-01-16T05:44:03;94207.69;;;-1.54;100.00
54038;BME280;39954;48.844;9.726;2023-01-16T05:45:06;94214.34;;;-1.50;100.00
54038;BME280;39954;48.844;9.726;2023-01-16T05:46:12;94207.47;;;-1.48;100.00
54038;BME280;39954;48.844;9.726;2023-01-16T05:47:17;94202.38;;;-1.48;100.00
54038;BME280;39954;48.844;9.726;2023-01-16T05:48:19;94197.31;;;-1.50;100.00
54038;BME280;39954;48.844;9.726;2023-01-16T05:49:25;94197.63;;;-1.58;100.00
54038;BME280;39954;48.844;9.726;2023-01-16T05:50:27;94194.00;;;-1.52;100.00
54038;BME280;39954;48.844;9.726;2023-01-16T05:51:36;94195.84;;;-1.55;100.00
54038;BME280;39954;48.844;9.726;2023-01-16T05:52:40;94185.53;;;-1.52;100.00
54038;BME280;39954;48.844;9.726;2023-01-16T05:53:49;94183.88;;;-1.53;100.00
54038;BME280;39954;48.844;9.726;2023-01-16T05:54:51;94177.25;;;-1.58;100.00
54038;BME280;39954;48.844;9.726;2023-01-16T05:55:58;94168.84;;;-1.60;100.00
54038;BME280;39954;48.844;9.726;2023-01-16T05:57:01;94169.69;;;-1.59;100.00
54038;BME280;39954;48.844;9.726;2023-01-16T05:58:05;94166.06;;;-1.53;100.00
54038;BME280;39954;48.844;9.726;2023-01-16T05:59:08;94154.84;;;-1.49;100.00